createdAt,value
2022-08-17T00:00:34.891Z,15.55
2022-08-17T00:03:22.237Z,18.95
2022-08-17T00:05:51.520Z,17.05
2022-08-17T00:08:22.875Z,15.43
2022-08-17T00:10:51.561Z,14.65
2022-08-17T00:13:27.666Z,15.30
2022-08-17T00:16:01.598Z,19.00
2022-08-17T00:19:06.063Z,17.08
2022-08-17T00:21:23.808Z,16.48
2022-08-17T00:23:53.682Z,17.63
2022-08-17T00:26:44.352Z,17.95
2022-08-17T00:29:09.330Z,18.08
2022-08-17T00:31:42.288Z,18.30
2022-08-17T00:34:10.179Z,19.05
2022-08-17T00:36:37.596Z,22.00
2022-08-17T00:39:05.066Z,18.38
2022-08-17T00:41:32.599Z,19.88
2022-08-17T00:44:02.471Z,18.00
2022-08-17T00:46:41.067Z,20.00
2022-08-17T00:49:10.048Z,19.30
2022-08-17T00:51:50.539Z,19.42
2022-08-17T00:54:33.303Z,20.05
2022-08-17T00:57:21.104Z,19.65
2022-08-17T01:00:02.655Z,22.38
2022-08-17T01:02:42.383Z,23.45
2022-08-17T01:05:20.878Z,23.65
2022-08-17T01:07:50.840Z,22.58
2022-08-17T01:10:59.306Z,21.52
2022-08-17T01:13:11.187Z,21.83
2022-08-17T01:15:46.230Z,23.13
2022-08-17T01:18:14.059Z,21.13
2022-08-17T01:20:48.602Z,22.92
2022-08-17T01:23:20.770Z,24.63
2022-08-17T01:25:51.347Z,24.70
2022-08-17T01:28:36.457Z,24.05
2022-08-17T01:31:08.522Z,25.45
2022-08-17T01:33:36.582Z,25.60
2022-08-17T01:36:07.005Z,25.02
2022-08-17T01:38:38.834Z,36.35
2022-08-17T01:41:11.731Z,25.77
2022-08-17T01:43:49.136Z,28.20
2022-08-17T01:46:35.833Z,26.70
2022-08-17T01:49:08.001Z,24.25
2022-08-17T01:51:35.174Z,25.20
2022-08-17T01:54:06.445Z,24.08
2022-08-17T01:56:36.972Z,27.73
2022-08-17T01:59:04.843Z,25.48
2022-08-17T02:01:34.604Z,24.67
2022-08-17T02:04:02.152Z,25.80
2022-08-17T02:06:52.410Z,24.75
2022-08-17T02:09:19.368Z,28.25
2022-08-17T02:11:50.709Z,30.70
2022-08-17T02:14:18.074Z,27.55
2022-08-17T02:16:45.224Z,27.50
2022-08-17T02:19:15.678Z,26.90
2022-08-17T02:21:45.521Z,25.42
2022-08-17T02:24:58.654Z,26.25
2022-08-17T02:27:05.977Z,26.70
2022-08-17T02:29:33.147Z,26.90
2022-08-17T02:32:01.814Z,24.65
2022-08-17T02:34:29.968Z,24.23
2022-08-17T02:36:57.140Z,23.90
2022-08-17T02:39:24.281Z,23.83
2022-08-17T02:42:01.537Z,23.05
2022-08-17T02:44:39.597Z,24.52
2022-08-17T02:47:09.308Z,25.38
2022-08-17T02:49:37.594Z,27.15
2022-08-17T02:52:06.938Z,25.00
2022-08-17T02:54:41.702Z,26.30
2022-08-17T02:57:10.531Z,26.35
2022-08-17T02:59:39.259Z,26.90
2022-08-17T03:02:08.759Z,26.30
2022-08-17T03:04:36.084Z,26.08
2022-08-17T03:07:04.893Z,27.85
2022-08-17T03:09:32.147Z,27.92
2022-08-17T03:12:12.159Z,26.65
2022-08-17T03:14:43.312Z,27.52
2022-08-17T03:17:11.220Z,28.48
2022-08-17T03:19:43.126Z,29.88
2022-08-17T03:22:35.877Z,29.98
2022-08-17T03:24:58.244Z,28.40
2022-08-17T03:27:25.466Z,29.42
2022-08-17T03:29:53.062Z,32.97
2022-08-17T03:32:20.749Z,32.38
2022-08-17T03:34:48.476Z,32.40
2022-08-17T03:37:15.800Z,30.75
2022-08-17T03:39:43.132Z,35.60
2022-08-17T03:42:31.890Z,33.03
2022-08-17T03:45:01.071Z,30.98
2022-08-17T03:47:46.911Z,32.00
2022-08-17T03:50:38.126Z,31.70
2022-08-17T03:53:34.730Z,30.83
2022-08-17T03:56:23.522Z,33.30
2022-08-17T03:58:50.610Z,36.25
2022-08-17T04:01:18.221Z,33.88
2022-08-17T04:03:45.366Z,33.53
2022-08-17T04:06:12.522Z,38.83
2022-08-17T04:08:39.664Z,36.33
2022-08-17T04:11:06.805Z,34.75
2022-08-17T04:13:33.966Z,37.25
2022-08-17T04:16:01.102Z,34.58
2022-08-17T04:18:28.201Z,35.88
2022-08-17T04:20:55.732Z,40.53
2022-08-17T04:23:28.242Z,35.22
2022-08-17T04:25:55.608Z,38.08
2022-08-17T04:28:22.755Z,38.50
2022-08-17T04:30:49.950Z,36.38
2022-08-17T04:33:19.768Z,37.17
2022-08-17T04:35:50.039Z,35.75
2022-08-17T04:38:24.146Z,38.67
2022-08-17T04:41:10.809Z,40.85
2022-08-17T04:43:42.966Z,38.67
2022-08-17T04:46:14.612Z,37.40
2022-08-17T04:48:47.960Z,38.22
2022-08-17T04:51:18.063Z,36.83
2022-08-17T04:53:53.928Z,36.60
2022-08-17T04:56:23.871Z,37.90
2022-08-17T04:58:53.193Z,37.47
2022-08-17T05:01:23.685Z,38.08
2022-08-17T05:03:53.620Z,36.50
2022-08-17T05:06:21.033Z,39.85
2022-08-17T05:08:48.540Z,38.45
2022-08-17T05:11:15.805Z,45.03
2022-08-17T05:13:43.395Z,43.65
2022-08-17T05:16:10.875Z,42.25
2022-08-17T05:18:38.941Z,41.50
2022-08-17T05:21:06.976Z,37.13
2022-08-17T05:23:42.990Z,41.17
2022-08-17T05:26:26.269Z,40.30
2022-08-17T05:29:00.448Z,40.50
2022-08-17T05:31:30.921Z,41.03
2022-08-17T05:33:58.951Z,40.53
2022-08-17T05:36:41.763Z,40.67
2022-08-17T05:39:16.600Z,38.63
2022-08-17T05:41:48.267Z,38.58
2022-08-17T05:44:16.315Z,44.75
2022-08-17T05:46:49.888Z,43.85
2022-08-17T05:49:27.093Z,44.00
2022-08-17T05:52:19.771Z,38.60
2022-08-17T05:54:57.729Z,38.85
2022-08-17T05:57:36.063Z,37.00
2022-08-17T06:00:20.802Z,35.85
2022-08-17T06:03:16.196Z,35.40
2022-08-17T06:06:01.833Z,34.03
2022-08-17T06:08:38.269Z,35.00
2022-08-17T06:11:30.359Z,29.25
2022-08-17T06:14:29.733Z,31.80
2022-08-17T06:17:08.378Z,36.58
2022-08-17T06:19:50.140Z,31.40
2022-08-17T06:22:22.225Z,35.75
2022-08-17T06:25:12.869Z,36.08
2022-08-17T06:27:53.545Z,32.30
2022-08-17T06:30:29.441Z,34.05
2022-08-17T06:33:26.670Z,32.97
2022-08-17T06:36:09.986Z,31.55
2022-08-17T06:39:14.349Z,30.77
2022-08-17T06:41:53.904Z,30.13
2022-08-17T06:44:54.990Z,30.73
2022-08-17T06:47:28.776Z,27.83
2022-08-17T06:50:02.284Z,26.27
2022-08-17T06:52:45.255Z,29.67
2022-08-17T06:55:21.388Z,27.58
2022-08-17T06:57:57.568Z,26.02
2022-08-17T07:00:29.900Z,30.10
2022-08-17T07:03:14.820Z,30.38
2022-08-17T07:06:02.726Z,30.15
2022-08-17T07:09:08.034Z,26.30
2022-08-17T07:12:00.244Z,24.73
2022-08-17T07:14:39.695Z,27.67
2022-08-17T07:17:18.269Z,24.73
2022-08-17T07:19:49.008Z,30.40
2022-08-17T07:22:30.327Z,27.38
2022-08-17T07:25:18.715Z,25.85
2022-08-17T07:27:51.350Z,25.65
2022-08-17T07:30:26.154Z,26.73
2022-08-17T07:33:08.300Z,26.30
2022-08-17T07:35:44.247Z,22.63
2022-08-17T07:38:28.355Z,26.23
2022-08-17T07:43:31.149Z,22.60
2022-08-17T07:46:18.894Z,23.20
2022-08-17T07:48:50.471Z,29.85
2022-08-17T07:51:28.473Z,21.70
2022-08-17T07:54:14.221Z,24.88
2022-08-17T07:57:03.991Z,24.35
2022-08-17T07:59:36.886Z,24.65
2022-08-17T08:02:06.158Z,26.23
2022-08-17T08:07:34.680Z,22.90
2022-08-17T08:10:10.884Z,22.02
2022-08-17T08:12:44.317Z,21.80
2022-08-17T08:15:33.189Z,21.70
2022-08-17T08:18:04.196Z,21.20
2022-08-17T08:20:53.216Z,23.70
2022-08-17T08:23:33.354Z,18.65
2022-08-17T08:26:18.619Z,19.50
2022-08-17T08:29:12.635Z,22.27
2022-08-17T08:32:14.726Z,18.17
2022-08-17T08:35:06.659Z,15.38
2022-08-17T08:38:07.570Z,19.33
2022-08-17T08:40:38.747Z,21.50
2022-08-17T08:43:26.643Z,14.60
2022-08-17T08:46:32.234Z,17.67
2022-08-17T08:50:01.808Z,11.65
2022-08-17T08:52:44.223Z,18.52
2022-08-17T08:55:22.035Z,13.85
2022-08-17T08:58:00.760Z,11.50
2022-08-17T09:00:35.710Z,18.48
2022-08-17T09:03:51.688Z,11.90
2022-08-17T09:06:33.623Z,12.32
2022-08-17T09:09:26.499Z,11.50
2022-08-17T09:12:33.373Z,13.55
2022-08-17T09:15:12.962Z,13.35
2022-08-17T09:17:46.154Z,13.90
2022-08-17T09:20:27.550Z,10.02
2022-08-17T09:23:14.723Z,7.78
2022-08-17T09:26:22.480Z,11.07
2022-08-17T09:28:55.809Z,8.48
2022-08-17T09:31:35.433Z,13.20
2022-08-17T09:34:18.287Z,12.85
2022-08-17T09:36:49.750Z,13.98
2022-08-17T09:39:44.596Z,6.07
2022-08-17T09:45:24.628Z,9.77
2022-08-17T09:48:04.820Z,8.40
2022-08-17T09:50:55.443Z,6.95
2022-08-17T09:53:36.975Z,6.50
2022-08-17T09:56:04.304Z,9.02
2022-08-17T09:58:47.668Z,6.85
2022-08-17T10:01:24.711Z,8.23
2022-08-17T10:04:30.203Z,7.35
2022-08-17T10:06:58.864Z,7.78
2022-08-17T10:09:45.795Z,12.93
2022-08-17T10:12:35.649Z,10.40
2022-08-17T10:15:22.561Z,8.63
2022-08-17T10:18:20.041Z,8.48
2022-08-17T10:21:26.723Z,10.98
2022-08-17T10:24:31.017Z,9.75
2022-08-17T10:29:47.400Z,10.35
2022-08-17T10:32:32.857Z,9.90
2022-08-17T10:35:14.542Z,7.55
2022-08-17T10:37:47.966Z,10.15
2022-08-17T10:45:36.013Z,12.65
2022-08-17T10:48:07.326Z,9.95
2022-08-17T10:50:57.512Z,9.13
2022-08-17T10:53:38.767Z,5.70
2022-08-17T10:56:13.544Z,4.60
2022-08-17T10:58:56.262Z,10.90
2022-08-17T11:01:33.038Z,6.53
2022-08-17T11:04:18.598Z,13.40
2022-08-17T11:11:08.628Z,5.25
2022-08-17T11:13:38.554Z,9.77
2022-08-17T11:16:17.593Z,5.97
2022-08-17T11:19:05.878Z,6.88
2022-08-17T11:22:07.142Z,6.93
2022-08-17T11:24:37.728Z,5.30
2022-08-17T11:27:13.976Z,9.38
2022-08-17T11:29:58.174Z,17.88
2022-08-17T11:32:34.122Z,6.75
2022-08-17T11:35:12.326Z,8.63
2022-08-17T11:37:58.967Z,6.15
2022-08-17T11:41:18.481Z,7.35
2022-08-17T11:44:16.802Z,9.32
2022-08-17T11:47:30.830Z,6.85
2022-08-17T11:50:35.287Z,4.75
2022-08-17T11:53:02.729Z,10.27
2022-08-17T11:55:38.185Z,7.53
2022-08-17T11:58:29.706Z,5.68
2022-08-17T12:00:59.897Z,6.70
2022-08-17T12:03:39.141Z,9.43
2022-08-17T12:06:30.976Z,13.45
2022-08-17T12:09:39.778Z,5.45
2022-08-17T12:12:33.404Z,6.93
2022-08-17T12:15:11.773Z,8.20
2022-08-17T12:17:42.620Z,5.60
2022-08-17T12:20:21.459Z,7.88
2022-08-17T12:23:07.021Z,10.93
2022-08-17T12:25:47.029Z,9.43
2022-08-17T12:28:36.371Z,7.28
2022-08-17T12:31:08.100Z,4.90
2022-08-17T12:33:38.168Z,7.47
2022-08-17T12:36:08.848Z,5.93
2022-08-17T12:38:38.158Z,5.50
2022-08-17T12:41:27.090Z,7.57
2022-08-17T12:44:02.063Z,5.47
2022-08-17T12:46:33.531Z,5.57
2022-08-17T12:49:28.274Z,5.90
2022-08-17T12:52:17.680Z,6.72
2022-08-17T12:55:07.021Z,5.68
2022-08-17T12:57:41.961Z,8.85
2022-08-17T13:00:17.659Z,7.10
2022-08-17T13:02:57.971Z,6.90
2022-08-17T13:05:35.518Z,4.75
2022-08-17T13:08:14.435Z,7.13
2022-08-17T13:10:42.252Z,7.35
2022-08-17T13:13:25.098Z,9.32
2022-08-17T13:15:55.599Z,11.57
2022-08-17T13:18:40.306Z,7.57
2022-08-17T13:21:12.148Z,9.85
2022-08-17T13:23:39.513Z,10.52
2022-08-17T13:26:16.140Z,9.57
2022-08-17T13:28:51.663Z,6.47
2022-08-17T13:31:28.417Z,8.50
2022-08-17T13:34:23.829Z,6.30
2022-08-17T13:37:33.675Z,4.55
2022-08-17T13:40:04.455Z,6.93
2022-08-17T13:42:54.174Z,7.32
2022-08-17T13:45:36.291Z,4.97
2022-08-17T13:48:11.145Z,6.00
2022-08-17T13:50:56.271Z,5.18
2022-08-17T13:53:39.480Z,7.28
2022-08-17T13:56:37.148Z,6.20
2022-08-17T13:59:00.715Z,5.57
2022-08-17T14:01:37.003Z,9.43
2022-08-17T14:04:07.625Z,9.63
2022-08-17T14:06:53.094Z,4.90
2022-08-17T14:09:27.110Z,7.20
2022-08-17T14:14:23.233Z,5.95
2022-08-17T14:16:51.978Z,7.63
2022-08-17T14:19:21.822Z,11.10
2022-08-17T14:21:49.799Z,7.10
2022-08-17T14:24:30.079Z,8.07
2022-08-17T14:26:59.719Z,5.72
2022-08-17T14:29:29.535Z,6.40
2022-08-17T14:31:57.946Z,7.70
2022-08-17T14:34:25.587Z,6.90
2022-08-17T14:36:53.005Z,6.20
2022-08-17T14:39:20.618Z,9.13
2022-08-17T14:41:48.384Z,7.22
2022-08-17T14:44:16.287Z,7.25
2022-08-17T14:46:45.085Z,7.22
2022-08-17T14:49:15.636Z,11.68
2022-08-17T14:51:43.890Z,5.55
2022-08-17T14:54:33.710Z,7.68
2022-08-17T14:57:23.317Z,4.53
2022-08-17T14:59:54.926Z,4.82
2022-08-17T15:02:29.540Z,7.70
2022-08-17T15:05:06.013Z,6.68
2022-08-17T15:07:33.198Z,6.85
2022-08-17T15:10:01.332Z,10.05
2022-08-17T15:12:33.360Z,6.45
2022-08-17T15:15:05.555Z,8.85
2022-08-17T15:17:44.240Z,10.90
2022-08-17T15:20:21.753Z,4.75
2022-08-17T15:22:49.988Z,5.63
2022-08-17T15:25:19.284Z,5.07
2022-08-17T15:27:47.347Z,12.70
2022-08-17T15:30:15.488Z,7.10
2022-08-17T15:32:46.841Z,6.75
2022-08-17T15:35:27.073Z,4.35
2022-08-17T15:37:57.926Z,6.18
2022-08-17T15:40:25.185Z,6.32
2022-08-17T15:42:52.881Z,6.25
2022-08-17T15:45:24.493Z,9.10
2022-08-17T15:47:52.715Z,6.32
2022-08-17T15:50:20.091Z,6.68
2022-08-17T15:52:47.561Z,5.97
2022-08-17T15:55:15.353Z,6.35
2022-08-17T15:57:42.539Z,7.78
2022-08-17T16:00:11.173Z,5.72
2022-08-17T16:03:45.966Z,6.57
2022-08-17T16:05:31.132Z,6.60
2022-08-17T16:07:59.702Z,7.57
2022-08-17T16:10:35.024Z,14.02
2022-08-17T16:13:04.566Z,8.13
2022-08-17T16:15:32.273Z,6.88
2022-08-17T16:17:59.739Z,7.30
2022-08-17T16:20:27.266Z,7.70
2022-08-17T16:22:55.174Z,7.57
2022-08-17T16:25:52.508Z,5.60
2022-08-17T16:28:17.759Z,9.15
2022-08-17T16:30:45.410Z,8.73
2022-08-17T16:33:13.546Z,7.32
2022-08-17T16:35:41.977Z,7.53
2022-08-17T16:38:09.554Z,12.07
2022-08-17T16:40:41.536Z,9.52
2022-08-17T16:43:12.066Z,16.67
2022-08-17T16:45:40.647Z,6.05
2022-08-17T16:48:09.442Z,6.35
2022-08-17T16:50:36.905Z,18.42
2022-08-17T16:53:10.483Z,7.35
2022-08-17T16:55:38.432Z,7.05
2022-08-17T16:58:06.308Z,8.23
2022-08-17T17:00:33.736Z,10.48
2022-08-17T17:03:19.385Z,7.57
2022-08-17T17:06:18.628Z,7.93
2022-08-17T17:08:58.763Z,11.07
2022-08-17T17:11:42.871Z,11.90
2022-08-17T17:14:20.606Z,6.00
2022-08-17T17:17:01.655Z,7.75
2022-08-17T17:19:37.754Z,12.90
2022-08-17T17:22:27.302Z,11.30
2022-08-17T17:25:13.665Z,10.75
2022-08-17T17:27:59.882Z,7.88
2022-08-17T17:30:37.150Z,9.95
2022-08-17T17:33:14.605Z,9.50
2022-08-17T17:35:56.620Z,7.97
2022-08-17T17:38:29.180Z,10.48
2022-08-17T17:41:04.539Z,8.80
2022-08-17T17:43:39.223Z,7.32
2022-08-17T17:46:26.687Z,13.85
2022-08-17T17:48:57.442Z,9.80
2022-08-17T17:52:03.563Z,10.18
2022-08-17T17:55:05.606Z,7.13
2022-08-17T17:57:57.422Z,6.32
2022-08-17T18:00:26.335Z,13.02
2022-08-17T18:02:59.358Z,8.30
2022-08-17T18:05:48.912Z,9.60
2022-08-17T18:08:34.097Z,9.02
2022-08-17T18:11:34.857Z,8.88
2022-08-17T18:14:24.045Z,6.93
2022-08-17T18:16:57.031Z,6.18
2022-08-17T18:19:26.263Z,18.38
2022-08-17T18:22:02.664Z,15.93
2022-08-17T18:24:33.264Z,8.65
2022-08-17T18:27:02.731Z,11.70
2022-08-17T18:29:47.886Z,15.98
2022-08-17T18:32:35.377Z,15.50
2022-08-17T18:35:08.716Z,13.48
2022-08-17T18:40:35.021Z,11.35
2022-08-17T18:43:25.468Z,10.57
2022-08-17T18:45:57.481Z,12.57
2022-08-17T18:48:49.510Z,6.30
2022-08-17T18:51:40.850Z,11.00
2022-08-17T18:54:15.348Z,9.75
2022-08-17T18:56:48.908Z,6.43
2022-08-17T19:02:10.064Z,7.68
2022-08-17T19:05:08.385Z,5.05
2022-08-17T19:07:40.895Z,5.25
2022-08-17T19:10:10.736Z,4.63
2022-08-17T19:13:12.434Z,4.88
2022-08-17T19:16:11.674Z,6.68
2022-08-17T19:18:47.369Z,6.65
2022-08-17T19:21:25.947Z,6.30
2022-08-17T19:24:04.906Z,9.20
2022-08-17T19:26:53.636Z,6.00
2022-08-17T19:29:45.579Z,6.70
2022-08-17T19:32:16.366Z,7.32
2022-08-17T19:34:44.670Z,8.65
2022-08-17T19:37:33.251Z,8.57
2022-08-17T19:40:51.654Z,6.50
2022-08-17T19:43:45.818Z,7.47
2022-08-17T19:46:27.447Z,7.82
2022-08-17T19:49:19.799Z,7.32
2022-08-17T19:52:02.132Z,7.78
2022-08-17T19:54:38.055Z,8.13
2022-08-17T19:57:19.388Z,7.07
2022-08-17T19:59:56.424Z,7.50
2022-08-17T20:02:32.494Z,7.18
2022-08-17T20:05:05.017Z,7.82
2022-08-17T20:07:49.541Z,6.70
2022-08-17T20:10:39.594Z,6.95
2022-08-17T20:13:13.874Z,8.25
2022-08-17T20:15:42.909Z,7.80
2022-08-17T20:18:20.440Z,7.78
2022-08-17T20:20:50.618Z,9.77
2022-08-17T20:23:31.273Z,8.48
2022-08-17T20:26:09.780Z,10.23
2022-08-17T20:28:39.054Z,10.38
2022-08-17T20:31:44.581Z,10.38
2022-08-17T20:34:33.715Z,10.68
2022-08-17T20:37:10.611Z,8.35
2022-08-17T20:39:46.523Z,9.20
2022-08-17T20:42:19.665Z,9.57
2022-08-17T20:44:50.224Z,8.48
2022-08-17T20:47:26.976Z,11.00
2022-08-17T20:50:08.029Z,8.82
2022-08-17T20:52:52.546Z,8.90
2022-08-17T20:55:52.045Z,11.27
2022-08-17T20:58:23.011Z,9.20
2022-08-17T21:00:56.011Z,9.30
2022-08-17T21:03:24.098Z,8.70
2022-08-17T21:06:17.219Z,8.57
2022-08-17T21:09:12.695Z,9.10
2022-08-17T21:12:03.502Z,9.18
2022-08-17T21:14:51.044Z,9.60
2022-08-17T21:17:35.808Z,8.13
2022-08-17T21:20:12.678Z,10.25
2022-08-17T21:23:00.585Z,8.45
2022-08-17T21:25:37.144Z,9.73
2022-08-17T21:28:23.106Z,9.43
2022-08-17T21:31:09.294Z,10.38
2022-08-17T21:33:38.948Z,9.52
2022-08-17T21:36:11.825Z,9.50
2022-08-17T21:38:47.843Z,9.18
2022-08-17T21:41:55.233Z,10.25
2022-08-17T21:44:47.206Z,9.10
2022-08-17T21:47:21.990Z,10.65
2022-08-17T21:49:49.270Z,9.68
2022-08-17T21:52:20.305Z,8.65
2022-08-17T21:55:02.290Z,9.25
2022-08-17T21:57:30.917Z,8.20
2022-08-17T22:00:00.700Z,10.13
2022-08-17T22:02:36.292Z,8.40
2022-08-17T22:05:09.621Z,7.40
2022-08-17T22:07:58.667Z,8.82
2022-08-17T22:10:44.415Z,8.00
2022-08-17T22:13:17.915Z,8.25
2022-08-17T22:15:48.003Z,7.30
2022-08-17T22:18:28.800Z,7.50
2022-08-17T22:20:58.015Z,7.47
2022-08-17T22:23:47.842Z,7.80
2022-08-17T22:26:17.624Z,8.70
2022-08-17T22:28:56.347Z,7.45
2022-08-17T22:31:26.463Z,7.80
2022-08-17T22:34:02.564Z,6.90
2022-08-17T22:36:40.383Z,7.40
2022-08-17T22:39:08.308Z,9.43
2022-08-17T22:41:41.299Z,7.38
2022-08-17T22:44:09.000Z,7.63
2022-08-17T22:46:41.333Z,7.35
2022-08-17T22:49:08.588Z,7.07
2022-08-17T22:51:36.756Z,7.65
2022-08-17T22:54:36.265Z,7.40
2022-08-17T22:57:23.695Z,7.35
2022-08-17T22:59:54.617Z,7.07
2022-08-17T23:02:32.103Z,7.07
2022-08-17T23:05:15.746Z,7.47
2022-08-17T23:07:45.522Z,8.32
2022-08-17T23:10:14.249Z,7.18
2022-08-17T23:12:41.513Z,6.95
2022-08-17T23:15:14.265Z,7.72
2022-08-17T23:17:41.957Z,7.68
2022-08-17T23:20:12.558Z,6.28
2022-08-17T23:22:51.370Z,7.13
2022-08-17T23:25:31.724Z,7.05
2022-08-17T23:28:01.889Z,8.88
2022-08-17T23:30:34.947Z,7.30
2022-08-17T23:33:07.307Z,6.95
2022-08-17T23:35:39.637Z,10.10
2022-08-17T23:38:10.541Z,8.57
2022-08-17T23:40:39.224Z,8.43
2022-08-17T23:43:23.894Z,6.28
2022-08-17T23:45:54.348Z,6.65
2022-08-17T23:48:35.268Z,8.20
2022-08-17T23:51:16.759Z,6.80
2022-08-17T23:53:48.111Z,8.00
2022-08-17T23:56:15.868Z,6.95
2022-08-17T23:58:44.769Z,7.75
